Time;durP1;ratioP1;P1;durP2;ratioP2;P2;SDS_P1;SDS_P2;PMS_P1;PMS_P2;Temp;Humidity;BMP_temperature;BMP_pressure;BME280_temperature;BME280_humidity;BME280_pressure;Samples;Min_cycle;Max_cycle;Signal;HPM_P1;HPM_P2
2022/01/01 00:02:00;;;;;;;35.05;22.67;;;;;;;-1.99;84.54;97892.50;4848920;29;20418;-71
2022/01/01 00:04:26;;;;;;;35.22;21.13;;;;;;;-1.96;85.36;97891.53;4881685;29;20135;-71
2022/01/01 00:06:51;;;;;;;33.20;19.35;;;;;;;-1.93;84.58;97880.94;4864338;29;20052;-71
2022/01/01 00:09:15;;;;;;;32.83;17.85;;;;;;;-1.93;84.89;97891.38;4864621;29;20047;-72
2022/01/01 00:11:41;;;;;;;29.77;17.83;;;;;;;-1.96;85.04;97887.16;4882079;29;20047;-71
2022/01/01 00:14:06;;;;;;;27.65;15.00;;;;;;;-1.95;85.33;97870.56;4880480;29;20405;-72
2022/01/01 00:16:30;;;;;;;22.45;14.00;;;;;;;-1.92;84.82;97873.00;4863133;29;20470;-72
2022/01/01 00:18:55;;;;;;;24.88;14.65;;;;;;;-1.97;84.42;97874.16;4862822;29;20070;-72
2022/01/01 00:21:20;;;;;;;26.95;15.60;;;;;;;-1.97;85.36;97875.00;4879555;29;20047;-71
2022/01/01 00:23:45;;;;;;;19.52;12.90;;;;;;;-1.96;84.83;97878.47;4861877;29;20075;-72
2022/01/01 00:26:09;;;;;;;22.77;14.63;;;;;;;-1.90;85.29;97873.78;4876268;29;20419;-71
2022/01/01 00:28:34;;;;;;;25.10;15.68;;;;;;;-1.87;84.70;97876.25;4861853;29;20040;-71
2022/01/01 00:31:00;;;;;;;28.35;15.95;;;;;;;-1.90;85.08;97876.38;4861998;29;20048;-72
2022/01/01 00:33:25;;;;;;;23.50;15.10;;;;;;;-1.88;84.66;97869.31;4878911;29;20036;-71
2022/01/01 00:35:50;;;;;;;23.63;14.48;;;;;;;-1.82;84.87;97868.19;4861546;29;20099;-73
2022/01/01 00:38:15;;;;;;;20.00;11.23;;;;;;;-1.74;84.85;97852.13;4862736;29;20039;-72
2022/01/01 00:40:40;;;;;;;19.23;12.25;;;;;;;-1.74;84.80;97852.13;4882435;29;20053;-70
2022/01/01 00:43:05;;;;;;;20.10;12.05;;;;;;;-1.77;84.50;97854.88;4879237;29;20051;-71
2022/01/01 00:45:32;;;;;;;21.50;12.68;;;;;;;-1.71;84.88;97849.34;4879681;29;20099;-71
2022/01/01 00:47:57;;;;;;;16.02;11.35;;;;;;;-1.68;84.52;97854.41;4862683;29;20502;-72
2022/01/01 00:50:22;;;;;;;21.02;12.35;;;;;;;-1.72;84.73;97847.66;4879458;29;20562;-70
2022/01/01 00:52:50;;;;;;;20.95;11.70;;;;;;;-1.71;85.17;97851.97;4879326;29;20137;-70
2022/01/01 00:55:14;;;;;;;19.05;11.15;;;;;;;-1.66;84.79;97844.72;4846764;29;20055;-70
2022/01/01 00:57:39;;;;;;;21.48;11.32;;;;;;;-1.64;84.97;97843.72;4862430;29;20052;-70
2022/01/01 01:00:05;;;;;;;17.92;11.95;;;;;;;-1.61;84.68;97853.19;4862067;29;20072;-69
2022/01/01 01:02:31;;;;;;;16.23;10.15;;;;;;;-1.58;84.75;97843.41;4879313;29;20039;-69
2022/01/01 01:04:56;;;;;;;17.98;9.80;;;;;;;-1.53;84.80;97838.81;4878968;29;20103;-68
2022/01/01 01:07:20;;;;;;;19.40;12.10;;;;;;;-1.53;84.96;97836.19;4879266;29;20043;-68
2022/01/01 01:09:45;;;;;;;15.10;9.95;;;;;;;-1.48;84.88;97828.13;4862303;29;20932;-70
2022/01/01 01:12:10;;;;;;;13.15;9.00;;;;;;;-1.44;84.90;97834.00;4880285;29;20044;-70
2022/01/01 01:14:40;;;;;;;15.45;9.38;;;;;;;-1.46;84.67;97839.31;4850412;29;20095;-71
2022/01/01 01:17:05;;;;;;;14.32;8.65;;;;;;;-1.45;84.72;97835.78;4882844;29;20048;-69
2022/01/01 01:19:30;;;;;;;14.65;9.68;;;;;;;-1.47;84.41;97835.03;4882796;29;20036;-70
2022/01/01 01:21:57;;;;;;;17.63;9.35;;;;;;;-1.50;84.35;97824.75;4881940;29;20040;-70
2022/01/01 01:24:24;;;;;;;19.40;11.55;;;;;;;-1.51;84.58;97828.28;4864935;29;20146;-69
2022/01/01 01:26:50;;;;;;;16.95;10.30;;;;;;;-1.50;84.86;97822.13;4879677;29;20063;-70
2022/01/01 01:29:18;;;;;;;16.63;10.35;;;;;;;-1.61;84.97;97824.44;4881889;29;20107;-70
2022/01/01 01:31:43;;;;;;;18.92;10.00;;;;;;;-1.56;85.13;97823.28;4882095;29;20040;-71
2022/01/01 01:34:08;;;;;;;16.17;10.48;;;;;;;-1.63;84.93;97826.28;4882150;29;20040;-71
2022/01/01 01:36:33;;;;;;;17.77;10.70;;;;;;;-1.61;85.42;97832.28;4882662;29;20052;-71
2022/01/01 01:38:58;;;;;;;13.77;8.13;;;;;;;-1.53;85.02;97828.34;4883658;29;20107;-71
2022/01/01 01:41:23;;;;;;;15.60;10.10;;;;;;;-1.55;84.74;97830.19;4883340;29;20103;-71
2022/01/01 01:43:51;;;;;;;19.58;10.38;;;;;;;-1.52;84.95;97818.75;4866641;29;20410;-72
2022/01/01 01:46:16;;;;;;;14.18;9.15;;;;;;;-1.46;85.08;97821.03;4882796;29;20502;-68
2022/01/01 01:48:43;;;;;;;15.43;9.15;;;;;;;-1.50;84.98;97819.50;4884853;29;20605;-76
2022/01/01 01:51:09;;;;;;;17.73;10.70;;;;;;;-1.42;84.67;97824.31;4884323;29;20052;-72
2022/01/01 01:53:34;;;;;;;18.17;9.05;;;;;;;-1.48;84.62;97825.50;4884791;29;20090;-75
2022/01/01 01:56:01;;;;;;;14.85;8.38;;;;;;;-1.45;84.35;97822.72;4885170;29;20446;-77
2022/01/01 01:58:29;;;;;;;15.07;8.60;;;;;;;-1.47;84.66;97817.56;4852392;29;20051;-74
2022/01/01 02:03:19;;;;;;;13.88;8.65;;;;;;;-1.50;84.93;97807.28;4882715;29;20059;-76
2022/01/01 02:05:45;;;;;;;15.43;9.35;;;;;;;-1.51;84.89;97816.06;4885063;29;20070;-76
2022/01/01 02:08:11;;;;;;;13.90;8.40;;;;;;;-1.49;84.96;97808.13;4852535;29;20040;-75
2022/01/01 02:10:36;;;;;;;12.13;7.38;;;;;;;-1.43;84.66;97810.41;4899036;29;20119;-75
2022/01/01 02:13:09;;;;;;;12.27;7.57;;;;;;;-1.41;84.75;97816.41;4851367;29;20136;-76
2022/01/01 02:15:59;;;;;;;21.95;9.65;;;;;;;-1.44;84.62;97813.94;4883615;29;20864;-73
2022/01/01 02:18:24;;;;;;;14.70;8.55;;;;;;;-1.45;84.77;97817.50;4866723;29;20044;-76
2022/01/01 02:20:50;;;;;;;12.63;7.32;;;;;;;-1.38;84.94;97820.66;4867902;29;20127;-77
2022/01/01 02:23:15;;;;;;;12.68;7.85;;;;;;;-1.39;84.46;97824.19;4853415;29;20414;-77
2022/01/01 02:25:41;;;;;;;14.23;7.32;;;;;;;-1.36;84.57;97814.41;4851804;29;20043;-75
2022/01/01 02:28:06;;;;;;;15.98;9.07;;;;;;;-1.35;85.14;97818.69;4883332;29;20055;-75
2022/01/01 02:30:31;;;;;;;10.07;6.82;;;;;;;-1.30;84.92;97821.06;4867042;29;20406;-77
2022/01/01 02:32:55;;;;;;;10.50;6.82;;;;;;;-1.27;85.00;97810.47;4837183;29;20421;-78
2022/01/01 02:35:21;;;;;;;11.80;6.97;;;;;;;-1.21;84.79;97805.75;4886733;29;20115;-77
2022/01/01 02:37:46;;;;;;;11.30;6.85;;;;;;;-1.19;84.62;97811.72;4868527;29;20151;-75
2022/01/01 02:40:11;;;;;;;12.88;7.00;;;;;;;-1.16;84.91;97810.72;4884567;29;20052;-78
2022/01/01 02:42:38;;;;;;;11.65;7.20;;;;;;;-1.16;84.58;97818.56;4863539;29;20106;-82
2022/01/01 02:45:07;;;;;;;13.10;8.80;;;;;;;-1.19;84.52;97811.72;4866317;29;20183;-70
2022/01/01 02:47:32;;;;;;;11.07;7.40;;;;;;;-1.23;84.51;97815.44;4862966;29;20051;-70
2022/01/01 02:49:57;;;;;;;12.15;7.40;;;;;;;-1.21;84.78;97808.34;4864130;29;20056;-70
2022/01/01 02:52:22;;;;;;;11.95;7.53;;;;;;;-1.19;84.71;97806.50;4862439;29;20512;-70
2022/01/01 02:54:47;;;;;;;11.05;6.28;;;;;;;-1.14;84.74;97796.66;4863291;29;20469;-68
2022/01/01 02:57:11;;;;;;;12.00;7.18;;;;;;;-1.09;84.97;97809.47;4861940;29;20051;-69
2022/01/01 02:59:36;;;;;;;17.85;8.38;;;;;;;-1.10;84.76;97805.16;4862652;29;20104;-68
2022/01/01 03:02:01;;;;;;;12.25;7.20;;;;;;;-1.08;84.45;97799.84;4863023;29;20049;-64
2022/01/01 03:04:25;;;;;;;12.25;7.70;;;;;;;-1.09;84.82;97804.22;4863018;29;20054;-65
2022/01/01 03:06:54;;;;;;;13.73;7.45;;;;;;;-1.08;84.36;97802.47;4861664;29;20083;-65
2022/01/01 03:09:20;;;;;;;11.85;7.45;;;;;;;-1.14;84.08;97812.34;4845934;29;20048;-66
2022/01/01 03:11:45;;;;;;;14.40;7.97;;;;;;;-1.14;84.64;97803.66;4846382;29;20503;-67
2022/01/01 03:14:12;;;;;;;11.68;7.97;;;;;;;-1.12;84.60;97801.78;4862879;29;20526;-65
2022/01/01 03:16:36;;;;;;;13.10;7.35;;;;;;;-1.14;85.16;97807.13;4868350;29;20143;-65
2022/01/01 03:19:01;;;;;;;11.90;7.45;;;;;;;-1.07;84.81;97807.63;4869654;29;20151;-64
2022/01/01 03:21:26;;;;;;;11.98;6.95;;;;;;;-1.03;84.74;97803.91;4872255;29;20101;-65
2022/01/01 03:23:50;;;;;;;14.35;7.47;;;;;;;-1.01;84.58;97809.88;4872235;29;20059;-65
2022/01/01 03:26:15;;;;;;;11.82;6.57;;;;;;;-0.98;84.44;97806.25;4876543;29;20047;-67
2022/01/01 03:28:40;;;;;;;11.38;7.40;;;;;;;-0.94;84.69;97799.94;4872004;29;20125;-65
2022/01/01 03:31:04;;;;;;;11.75;7.30;;;;;;;-0.97;84.46;97794.88;4870535;29;20444;-68
2022/01/01 03:33:29;;;;;;;13.15;7.97;;;;;;;-0.95;84.82;97796.50;4862393;29;20058;-69
2022/01/01 03:35:54;;;;;;;12.63;6.57;;;;;;;-0.87;84.43;97793.44;4862137;29;20487;-69
2022/01/01 03:38:19;;;;;;;11.23;7.20;;;;;;;-0.85;84.27;97788.97;4861197;29;20047;-69
2022/01/01 03:40:44;;;;;;;29.02;8.98;;;;;;;-0.96;83.86;97786.13;4862747;29;20048;-69
2022/01/01 03:43:08;;;;;;;14.32;8.43;;;;;;;-1.04;84.04;97785.69;4878074;29;20536;-69
2022/01/01 03:45:33;;;;;;;12.55;8.75;;;;;;;-1.03;83.93;97779.53;4880963;29;20063;-64
2022/01/01 03:47:58;;;;;;;12.93;8.30;;;;;;;-0.99;84.23;97784.50;4848575;29;20055;-69
2022/01/01 03:50:23;;;;;;;12.98;6.65;;;;;;;-0.91;84.28;97794.56;4881102;29;20040;-70
2022/01/01 03:52:48;;;;;;;10.30;6.60;;;;;;;-0.92;84.28;97788.50;4880841;29;20514;-69
2022/01/01 03:55:14;;;;;;;13.75;8.07;;;;;;;-0.96;84.40;97786.97;4880852;29;20044;-70
2022/01/01 03:57:39;;;;;;;10.50;6.47;;;;;;;-0.93;84.07;97783.34;4863940;29;20075;-69
2022/01/01 04:00:07;;;;;;;12.15;8.18;;;;;;;-0.94;84.04;97794.72;4863730;29;20071;-68
2022/01/01 04:02:38;;;;;;;11.57;7.18;;;;;;;-0.92;84.25;97793.72;4880884;29;20099;-69
2022/01/01 04:05:05;;;;;;;18.38;8.15;;;;;;;-0.97;84.17;97798.34;4880203;29;20051;-70
2022/01/01 04:07:32;;;;;;;11.98;7.15;;;;;;;-0.94;84.27;97802.56;4879988;29;20044;-69
2022/01/01 04:09:57;;;;;;;9.50;6.20;;;;;;;-0.87;84.04;97807.38;4880304;29;20031;-71
2022/01/01 04:12:22;;;;;;;16.60;6.95;;;;;;;-1.02;84.15;97799.53;4863259;29;20099;-67
2022/01/01 11:32:37;;;;;;;5.78;3.13;;;;;;;-0.46;73.50;97843.50;4960976;23;20464;-68
2022/01/01 11:35:08;;;;;;;4.75;3.00;;;;;;;-0.44;73.89;97844.25;4890382;29;20047;-70
2022/01/01 11:38:03;;;;;;;3.28;2.80;;;;;;;-0.42;73.65;97847.63;4874160;29;20048;-70
2022/01/01 11:40:33;;;;;;;4.28;3.25;;;;;;;-0.47;72.89;97839.19;4889695;29;20107;-71
2022/01/01 11:42:59;;;;;;;4.95;3.15;;;;;;;-0.47;73.00;97839.19;4887159;29;20040;-71
2022/01/01 11:45:45;;;;;;;5.60;3.20;;;;;;;-0.40;73.43;97844.00;4891037;29;20059;-72
2022/01/01 11:48:55;;;;;;;4.65;2.78;;;;;;;-0.35;73.63;97850.75;4872443;29;20640;-73
2022/01/01 11:51:38;;;;;;;4.88;3.28;;;;;;;-0.38;73.63;97851.78;4898394;29;20064;-72
2022/01/01 11:54:30;;;;;;;4.10;2.65;;;;;;;-0.43;73.70;97854.63;4901411;29;20459;-73
2022/01/01 11:57:15;;;;;;;3.85;2.40;;;;;;;-0.46;72.86;97849.59;4895703;29;20058;-70
2022/01/01 12:00:12;;;;;;;3.78;2.80;;;;;;;-0.49;72.16;97848.91;4898524;29;20048;-70
2022/01/01 12:02:41;;;;;;;9.38;4.95;;;;;;;-0.69;72.63;97854.41;4804452;29;20050;-68
2022/01/01 12:05:20;;;;;;;7.43;3.95;;;;;;;-0.70;72.93;97856.16;4770492;29;20485;-68
2022/01/01 12:07:48;;;;;;;6.85;3.85;;;;;;;-0.59;73.29;97855.59;4805176;29;20551;-68
2022/01/01 12:10:16;;;;;;;3.92;3.10;;;;;;;-0.54;74.01;97862.22;4803970;29;20124;-71
2022/01/01 12:12:56;;;;;;;4.28;3.45;;;;;;;-0.52;73.36;97860.38;4788976;29;20056;-71
2022/01/01 12:15:23;;;;;;;3.60;3.20;;;;;;;-0.49;73.40;97862.00;4804157;29;20049;-70
2022/01/01 12:17:53;;;;;;;5.15;3.83;;;;;;;-0.48;73.69;97864.53;4803759;29;20133;-70
2022/01/01 12:20:22;;;;;;;7.18;4.53;;;;;;;-0.44;73.72;97867.78;4803794;29;20050;-72
2022/01/01 12:22:48;;;;;;;6.65;4.50;;;;;;;-0.46;73.66;97860.06;4804214;29;20056;-68
2022/01/01 12:25:15;;;;;;;5.03;3.25;;;;;;;-0.46;73.64;97859.22;4788900;29;20054;-69
2022/01/01 12:27:42;;;;;;;5.47;3.05;;;;;;;-0.48;73.58;97869.75;4803718;29;20585;-69
2022/01/01 12:30:08;;;;;;;4.13;2.63;;;;;;;-0.50;73.40;97876.84;4801401;29;20060;-68
2022/01/01 12:32:42;;;;;;;4.32;2.75;;;;;;;-0.50;73.08;97881.25;4786918;29;20058;-69
2022/01/01 12:35:09;;;;;;;3.70;2.78;;;;;;;-0.49;73.72;97875.94;4768155;29;20085;-70
2022/01/01 12:37:37;;;;;;;4.93;3.80;;;;;;;-0.51;73.50;97882.16;4785398;29;20236;-70
2022/01/01 12:40:05;;;;;;;5.13;3.90;;;;;;;-0.58;72.85;97878.22;4862534;29;20131;-70
2022/01/01 12:42:33;;;;;;;8.15;4.03;;;;;;;-0.59;73.06;97882.59;4851210;29;20499;-73
2022/01/01 12:45:00;;;;;;;5.95;3.38;;;;;;;-0.55;73.61;97884.09;4848246;29;20033;-66
2022/01/01 12:47:27;;;;;;;5.13;3.63;;;;;;;-0.52;73.71;97890.94;4853150;29;20074;-73
2022/01/01 12:49:52;;;;;;;5.47;3.63;;;;;;;-0.50;74.22;97891.72;4873086;29;20468;-72
2022/01/01 12:52:24;;;;;;;5.50;3.90;;;;;;;-0.57;73.71;97890.38;4845260;29;20500;-71
2022/01/01 12:54:51;;;;;;;3.92;3.35;;;;;;;-0.63;73.42;97888.91;4865696;29;20040;-69
2022/01/01 12:57:19;;;;;;;4.05;3.33;;;;;;;-0.69;73.01;97894.50;4848871;29;20044;-74
2022/01/01 12:59:49;;;;;;;5.55;3.65;;;;;;;-0.67;73.11;97899.63;4882078;29;20134;-71
2022/01/01 13:02:17;;;;;;;5.65;3.33;;;;;;;-0.65;73.32;97895.16;4872594;29;20047;-72
2022/01/01 13:04:42;;;;;;;5.53;3.33;;;;;;;-0.64;73.38;97902.06;4854171;29;20537;-73
2022/01/01 13:07:07;;;;;;;5.82;3.58;;;;;;;-0.66;73.00;97896.91;4866996;29;20081;-73
2022/01/01 13:09:32;;;;;;;6.53;3.60;;;;;;;-0.62;73.65;97895.84;4872509;29;20048;-73
2022/01/01 13:12:02;;;;;;;3.17;2.88;;;;;;;-0.57;73.75;97887.75;4872365;29;20537;-72
2022/01/01 13:14:29;;;;;;;5.32;3.83;;;;;;;-0.56;73.89;97895.50;4852054;29;20044;-75
2022/01/01 13:16:54;;;;;;;8.65;5.55;;;;;;;-0.57;73.88;97896.44;4871954;29;20131;-74
2022/01/01 13:19:19;;;;;;;9.90;6.13;;;;;;;-0.63;73.72;97902.00;4882038;29;20061;-76
2022/01/01 13:21:44;;;;;;;7.63;5.60;;;;;;;-0.64;73.77;97905.53;4864337;29;20048;-74
2022/01/01 13:24:10;;;;;;;8.80;5.88;;;;;;;-0.65;73.56;97906.47;4881263;29;20594;-72
2022/01/01 13:26:34;;;;;;;9.75;5.43;;;;;;;-0.62;73.59;97906.31;4849551;29;20506;-73
2022/01/01 13:29:02;;;;;;;7.38;4.68;;;;;;;-0.62;73.69;97903.69;4882071;29;20541;-73
2022/01/01 13:31:29;;;;;;;6.38;3.92;;;;;;;-0.60;73.91;97906.22;4891687;29;20055;-73
2022/01/01 13:33:56;;;;;;;4.28;3.40;;;;;;;-0.61;74.05;97904.53;4900927;29;20194;-73
2022/01/01 13:36:34;;;;;;;7.28;4.35;;;;;;;-0.58;73.92;97901.75;4884058;29;20052;-73
2022/01/01 13:39:08;;;;;;;4.78;3.20;;;;;;;-0.60;74.18;97903.59;4880962;29;20103;-71
2022/01/01 13:41:38;;;;;;;;;;;;;;;-0.52;74.23;97912.72;4891666;29;20040;-73
2022/01/01 13:44:19;;;;;;;8.05;3.65;;;;;;;-0.56;74.52;97921.66;4872084;29;20444;-74
2022/01/01 13:46:45;;;;;;;6.07;3.83;;;;;;;-0.64;74.15;97912.53;4870256;29;20051;-75
2022/01/01 13:49:12;;;;;;;5.63;4.10;;;;;;;-0.66;74.48;97910.00;4875369;29;20099;-73
2022/01/01 13:51:37;;;;;;;6.18;3.58;;;;;;;-0.68;74.80;97906.66;4861695;29;20111;-73
2022/01/01 13:54:09;;;;;;;7.28;4.80;;;;;;;-0.78;74.25;97908.88;4878203;29;20051;-77
2022/01/01 13:56:36;;;;;;;6.43;4.63;;;;;;;-0.77;74.52;97920.19;4856922;29;20075;-74
2022/01/01 13:59:01;;;;;;;7.32;5.05;;;;;;;-0.82;74.25;97917.00;4853854;29;20138;-75
2022/01/01 14:01:27;;;;;;;8.00;5.03;;;;;;;-0.82;74.41;97920.47;4880774;29;20044;-76
2022/01/01 14:03:53;;;;;;;7.20;5.22;;;;;;;-0.80;75.05;97923.00;4863617;29;20426;-76
2022/01/01 14:06:23;;;;;;;7.15;5.15;;;;;;;-0.79;74.70;97927.31;4855912;29;20048;-75
2022/01/01 14:08:59;;;;;;;6.85;4.68;;;;;;;-0.76;74.80;97924.50;4865696;29;20040;-76
2022/01/01 14:11:30;;;;;;;7.07;4.55;;;;;;;-0.75;74.74;97918.34;4864325;29;20769;-76
2022/01/01 14:14:12;;;;;;;7.93;4.95;;;;;;;-0.71;74.84;97934.75;4881732;29;20527;-77
2022/01/01 14:16:43;;;;;;;5.80;4.15;;;;;;;-0.68;75.10;97934.59;4879619;29;20055;-76
2022/01/01 14:19:15;;;;;;;6.97;4.75;;;;;;;-0.67;75.00;97937.09;4863796;29;20071;-75
2022/01/01 14:21:40;;;;;;;8.18;5.32;;;;;;;-0.69;74.90;97933.75;4883129;29;20554;-77
2022/01/01 14:24:05;;;;;;;6.38;4.85;;;;;;;-0.67;75.22;97934.47;4882843;29;20476;-77
2022/01/01 14:26:31;;;;;;;9.95;6.22;;;;;;;-0.67;74.77;97924.00;4882394;29;20044;-76
2022/01/01 14:28:58;;;;;;;8.40;4.80;;;;;;;-0.70;75.20;97952.13;4850104;29;20070;-77
2022/01/01 14:31:23;;;;;;;9.55;5.82;;;;;;;-0.69;75.01;97936.34;4850533;29;20083;-76
2022/01/01 14:33:49;;;;;;;7.75;5.10;;;;;;;-0.68;75.43;97939.81;4884708;29;20047;-76
2022/01/01 14:36:14;;;;;;;8.18;5.75;;;;;;;-0.68;75.38;97939.81;4866084;29;20443;-75
2022/01/01 14:38:42;;;;;;;8.35;5.80;;;;;;;-0.68;75.20;97948.53;4868835;29;20051;-76
2022/01/01 14:41:08;;;;;;;11.07;5.55;;;;;;;-0.65;75.35;97956.19;4866124;29;20043;-77
2022/01/01 14:43:34;;;;;;;7.82;5.35;;;;;;;-0.67;75.12;97952.78;4854881;29;20052;-76
2022/01/01 14:46:01;;;;;;;7.30;5.03;;;;;;;-0.64;75.20;97946.56;4854346;29;20114;-75
2022/01/01 14:48:38;;;;;;;7.93;5.43;;;;;;;-0.59;75.07;97949.78;4865903;29;20473;-75
2022/01/01 14:51:06;;;;;;;9.45;5.85;;;;;;;-0.58;75.75;97952.34;4882985;29;20499;-75
2022/01/01 14:53:37;;;;;;;8.77;5.75;;;;;;;-0.58;75.85;97965.41;4866468;29;20048;-75
2022/01/01 14:56:19;;;;;;;10.07;5.45;;;;;;;-0.56;75.59;97960.06;4850533;29;20077;-75
2022/01/01 14:58:49;;;;;;;9.13;5.68;;;;;;;-0.66;74.92;97949.25;4866185;29;20127;-78
2022/01/01 15:01:14;;;;;;;7.90;5.60;;;;;;;-0.68;74.94;97952.91;4881832;29;20506;-72
2022/01/01 15:03:39;;;;;;;11.05;5.88;;;;;;;-0.69;74.96;97959.06;4882152;29;20562;-75
2022/01/01 15:06:04;;;;;;;9.90;5.55;;;;;;;-0.74;74.55;97951.44;4882127;29;20126;-75
2022/01/01 15:08:33;;;;;;;9.43;5.95;;;;;;;-0.80;74.27;97967.47;4885900;29;20146;-74
2022/01/01 15:10:58;;;;;;;9.82;5.60;;;;;;;-0.80;73.80;97976.19;4872629;29;20419;-74
2022/01/01 15:13:24;;;;;;;7.15;4.80;;;;;;;-0.78;73.99;97983.91;4864775;29;20063;-73
2022/01/01 15:15:50;;;;;;;6.60;4.07;;;;;;;-0.82;73.57;97979.78;4887201;29;20505;-74
2022/01/01 15:18:17;;;;;;;5.78;3.88;;;;;;;-0.82;73.74;97990.25;4885824;29;20126;-76
2022/01/01 15:20:45;;;;;;;4.70;3.50;;;;;;;-0.86;73.44;97980.88;4861282;29;20490;-80
2022/01/01 15:23:32;;;;;;;6.00;4.13;;;;;;;-0.81;73.89;97984.94;4851623;29;20076;-78
2022/01/01 15:25:59;;;;;;;6.35;4.93;;;;;;;-0.87;73.73;97979.16;4882871;29;20455;-76
2022/01/01 15:28:25;;;;;;;4.55;3.55;;;;;;;-0.90;73.82;97984.56;4866549;29;20578;-75
2022/01/01 15:31:05;;;;;;;5.18;3.42;;;;;;;-0.87;73.80;97984.41;4883206;29;20064;-75
2022/01/01 15:33:33;;;;;;;5.45;3.55;;;;;;;-0.90;73.90;97981.94;4866870;29;20059;-74
2022/01/01 15:36:08;;;;;;;5.82;4.05;;;;;;;-0.87;74.13;97989.63;4884207;29;20048;-74
2022/01/01 15:39:09;;;;;;;6.18;4.10;;;;;;;-1.11;72.66;97991.72;4883341;29;20047;-75
2022/01/01 15:43:50;;;;;;;5.57;3.80;;;;;;;-1.03;73.56;98002.69;4867341;29;20048;-74
2022/01/01 15:46:14;;;;;;;8.27;4.68;;;;;;;-1.08;72.91;98004.66;4868561;29;20043;-73
2022/01/01 15:48:39;;;;;;;6.32;4.15;;;;;;;-1.07;72.94;97995.06;4884410;29;20048;-73
2022/01/01 15:51:05;;;;;;;7.40;4.15;;;;;;;-1.11;73.31;98003.03;4885713;29;20514;-74
2022/01/01 15:53:36;;;;;;;5.00;3.90;;;;;;;-1.13;72.59;98004.06;4885064;29;20794;-74
2022/01/01 15:56:12;;;;;;;14.93;4.07;;;;;;;-1.05;73.40;98008.91;4867262;29;20521;-73
2022/01/01 15:58:52;;;;;;;4.45;3.13;;;;;;;-1.02;73.97;98016.59;4849683;29;20052;-75
2022/01/01 16:01:21;;;;;;;6.75;3.65;;;;;;;-1.02;73.98;98012.22;4865542;29;20039;-75
2022/01/01 16:03:52;;;;;;;4.60;3.55;;;;;;;-1.01;74.10;98019.09;4882608;29;20044;-72
2022/01/01 16:06:22;;;;;;;5.85;4.13;;;;;;;-0.97;74.25;98022.41;4848843;29;20146;-73
2022/01/01 16:08:55;;;;;;;4.57;3.63;;;;;;;-0.96;74.25;98024.97;4881771;29;20048;-73
2022/01/01 16:11:24;;;;;;;7.38;4.95;;;;;;;-1.00;74.31;98012.97;4881434;29;20048;-75
2022/01/01 16:13:56;;;;;;;8.15;5.13;;;;;;;-1.00;74.12;98019.97;4881117;29;20054;-73
2022/01/01 16:16:23;;;;;;;6.72;4.32;;;;;;;-1.00;74.46;98025.19;4881088;29;20111;-71
2022/01/01 16:18:55;;;;;;;7.38;4.05;;;;;;;-1.03;73.93;98030.59;4884084;29;20127;-72
2022/01/01 16:21:22;;;;;;;6.20;4.18;;;;;;;-1.04;74.11;98028.91;4856677;29;20465;-71
2022/01/01 16:23:49;;;;;;;6.20;3.72;;;;;;;-1.11;73.95;98025.72;4873970;29;20035;-74
2022/01/01 16:26:16;;;;;;;5.32;3.47;;;;;;;-1.08;74.24;98024.75;4884963;29;20072;-72
2022/01/01 16:28:42;;;;;;;5.45;3.65;;;;;;;-1.07;74.32;98024.66;4838889;29;20048;-71
2022/01/01 16:31:08;;;;;;;5.13;3.50;;;;;;;-1.10;73.92;98025.66;4846979;29;20172;-70
2022/01/01 16:33:42;;;;;;;5.35;4.28;;;;;;;-1.07;73.92;98023.81;4880254;29;20040;-68
2022/01/01 16:36:08;;;;;;;4.90;2.95;;;;;;;-1.12;73.75;98030.09;4879817;29;20485;-69
2022/01/01 16:38:34;;;;;;;6.68;3.28;;;;;;;-1.15;73.48;98027.69;4863091;29;20044;-68
2022/01/01 16:41:10;;;;;;;7.75;3.72;;;;;;;-1.14;73.17;98026.75;4862317;29;20097;-70
2022/01/01 16:43:54;;;;;;;5.78;3.75;;;;;;;-1.17;72.70;98024.28;4861841;29;20485;-70
2022/01/01 16:46:30;;;;;;;5.03;2.95;;;;;;;-1.18;73.12;98032.19;4879998;29;20112;-68
2022/01/01 16:49:10;;;;;;;4.05;2.88;;;;;;;-1.16;73.40;98035.59;4862736;29;20066;-72
2022/01/01 16:51:45;;;;;;;3.80;3.10;;;;;;;-1.21;73.33;98032.34;4839265;29;20767;-69
2022/01/01 16:54:10;;;;;;;5.65;3.40;;;;;;;-1.25;73.11;98036.06;4885195;29;20418;-78
2022/01/01 16:56:37;;;;;;;4.95;3.10;;;;;;;-1.27;73.60;98046.59;4866383;29;20193;-72
2022/01/01 16:59:08;;;;;;;4.70;3.58;;;;;;;-1.26;74.02;98036.97;4879420;29;20056;-70
2022/01/01 17:01:37;;;;;;;7.05;3.80;;;;;;;-1.30;74.08;98044.13;4880146;29;20044;-72
2022/01/01 17:04:08;;;;;;;6.72;3.50;;;;;;;-1.29;73.83;98035.34;4863094;29;20056;-71
2022/01/01 17:06:36;;;;;;;4.45;2.90;;;;;;;-1.24;74.21;98045.59;4847430;29;20048;-71
2022/01/01 17:09:02;;;;;;;4.47;2.95;;;;;;;-1.33;73.84;98041.63;4854989;29;20035;-74
2022/01/01 17:11:27;;;;;;;5.35;3.50;;;;;;;-1.31;74.31;98047.66;4898157;29;20048;-67
2022/01/01 17:13:52;;;;;;;3.67;3.17;;;;;;;-1.27;74.63;98045.72;4880796;29;20057;-69
2022/01/01 17:16:34;;;;;;;3.45;3.15;;;;;;;-1.21;74.65;98048.88;4898397;29;20066;-72
2022/01/01 17:19:13;;;;;;;6.25;3.42;;;;;;;-1.22;74.90;98049.78;4865039;29;20067;-69
2022/01/01 17:21:48;;;;;;;4.03;2.90;;;;;;;-1.23;74.58;98050.72;4838984;29;20140;-69
2022/01/01 17:24:17;;;;;;;4.13;3.10;;;;;;;-1.22;74.77;98049.78;4867048;29;20150;-69
2022/01/01 17:26:48;;;;;;;5.47;3.30;;;;;;;-1.22;74.88;98052.41;4861707;29;20097;-72
2022/01/01 17:29:15;;;;;;;5.10;3.45;;;;;;;-1.22;74.38;98060.25;4884422;29;20051;-70
2022/01/01 17:31:42;;;;;;;6.22;3.85;;;;;;;-1.21;74.88;98059.34;4894700;29;20058;-71
2022/01/01 17:37:04;;;;;;;5.30;3.22;;;;;;;-1.22;74.38;98056.78;4898508;29;20804;-73
2022/01/01 17:39:55;;;;;;;4.13;2.85;;;;;;;-1.24;74.66;98061.28;4880920;29;20118;-70
2022/01/01 17:42:23;;;;;;;10.00;3.15;;;;;;;-1.38;74.96;98061.09;4898698;29;20043;-72
2022/01/01 17:44:49;;;;;;;5.55;3.88;;;;;;;-1.42;74.85;98060.38;4850724;29;20040;-68
2022/01/01 17:47:16;;;;;;;7.00;4.03;;;;;;;-1.44;74.81;98057.00;4898617;29;20086;-69
2022/01/01 17:49:45;;;;;;;4.90;3.50;;;;;;;-1.44;74.95;98069.22;4884116;29;20122;-70
2022/01/01 17:52:12;;;;;;;4.20;3.28;;;;;;;-1.48;74.98;98061.56;4894216;29;20071;-70
2022/01/01 17:54:39;;;;;;;4.00;3.35;;;;;;;-1.48;75.36;98071.16;4902861;29;20055;-71
2022/01/01 17:57:05;;;;;;;5.65;3.38;;;;;;;-1.51;75.18;98064.31;4872892;29;20055;-71
2022/01/01 17:59:31;;;;;;;4.80;3.40;;;;;;;-1.50;75.25;98078.22;4846647;29;20132;-72
2022/01/01 18:01:58;;;;;;;4.88;3.20;;;;;;;-1.54;75.07;98087.13;4851148;29;20052;-70
2022/01/01 18:04:23;;;;;;;5.50;3.35;;;;;;;-1.55;74.93;98080.19;4862837;29;20044;-70
2022/01/01 18:07:15;;;;;;;5.95;3.72;;;;;;;-1.51;75.47;98085.22;4889177;29;20059;-70
2022/01/01 18:09:42;;;;;;;4.78;3.10;;;;;;;-1.51;75.41;98077.38;4867758;29;20121;-70
2022/01/01 18:12:15;;;;;;;5.82;4.05;;;;;;;-1.51;75.34;98082.59;4895380;29;20500;-72
2022/01/01 18:14:41;;;;;;;7.20;4.20;;;;;;;-1.51;75.46;98097.44;4841331;29;20043;-70
2022/01/01 18:17:07;;;;;;;4.90;3.65;;;;;;;-1.56;75.64;98094.16;4892905;29;20047;-71
2022/01/01 18:19:34;;;;;;;5.90;3.28;;;;;;;-1.59;75.43;98089.97;4850315;29;20538;-70
2022/01/01 18:22:02;;;;;;;4.20;3.20;;;;;;;-1.60;75.70;98088.25;4865604;29;20052;-71
2022/01/01 18:24:40;;;;;;;5.90;3.90;;;;;;;-1.62;75.42;98089.25;4883122;29;20129;-74
2022/01/01 18:27:05;;;;;;;5.18;3.50;;;;;;;-1.65;75.51;98086.78;4849508;29;20048;-70
2022/01/01 18:29:32;;;;;;;5.97;3.67;;;;;;;-1.66;75.49;98104.22;4833892;29;20136;-71
2022/01/01 18:31:58;;;;;;;3.72;3.08;;;;;;;-1.67;75.82;98101.66;4849680;29;20161;-70
2022/01/01 18:34:27;;;;;;;4.78;3.85;;;;;;;-1.68;75.88;98099.97;4882532;29;20123;-70
2022/01/01 18:36:51;;;;;;;5.20;3.85;;;;;;;-1.70;75.46;98109.69;4849824;29;20048;-73
2022/01/01 18:39:16;;;;;;;5.18;4.05;;;;;;;-1.71;76.32;98110.59;4865129;29;20040;-72
2022/01/01 18:41:43;;;;;;;4.30;3.10;;;;;;;-1.72;76.43;98106.28;4883690;29;20054;-73
2022/01/01 18:44:09;;;;;;;7.00;3.97;;;;;;;-1.70;76.34;98122.75;4866317;29;20039;-71
2022/01/01 18:46:35;;;;;;;4.88;3.40;;;;;;;-1.68;76.71;98120.88;4882907;29;20051;-70
2022/01/01 18:49:00;;;;;;;6.07;3.60;;;;;;;-1.69;76.00;98129.66;4865625;29;20047;-70
2022/01/01 18:51:30;;;;;;;9.30;3.80;;;;;;;-1.73;76.19;98121.09;4864725;29;20054;-69
2022/01/01 18:54:11;;;;;;;6.90;4.50;;;;;;;-1.76;76.12;98125.63;4881029;29;20523;-76
2022/01/01 18:56:46;;;;;;;9.23;4.43;;;;;;;-1.71;76.03;98126.25;4882831;29;20100;-69
2022/01/01 18:59:11;;;;;;;6.63;3.72;;;;;;;-1.72;76.61;98135.88;4863226;29;20059;-71
2022/01/01 19:01:37;;;;;;;5.65;3.90;;;;;;;-1.68;76.60;98134.78;4846952;29;20087;-70